sensor_id;sensor_type;location;lat;lon;timestamp;P1;P2;P0
42002;PMS7003;27693;50.506;30.832;2023-04-16T00:01:01;27.60;23.80;17.10
42002;PMS7003;27693;50.506;30.832;2023-04-16T00:02:04;29.00;25.10;18.60
42002;PMS7003;27693;50.506;30.832;2023-04-16T00:03:06;32.91;27.18;18.91
42002;PMS7003;27693;50.506;30.832;2023-04-16T00:04:09;32.50;25.70;19.70
42002;PMS7003;27693;50.506;30.832;2023-04-16T00:05:15;27.00;24.50;17.50
42002;PMS7003;27693;50.506;30.832;2023-04-16T00:06:18;25.20;23.50;15.60
42002;PMS7003;27693;50.506;30.832;2023-04-16T00:07:20;30.00;23.60;15.80
42002;PMS7003;27693;50.506;30.832;2023-04-16T00:08:22;27.10;22.90;16.40
42002;PMS7003;27693;50.506;30.832;2023-04-16T00:09:25;29.30;25.40;18.10
42002;PMS7003;27693;50.506;30.832;2023-04-16T00:10:27;28.90;24.90;18.00
42002;PMS7003;27693;50.506;30.832;2023-04-16T00:11:30;30.20;26.90;19.40
42002;PMS7003;27693;50.506;30.832;2023-04-16T00:12:32;26.40;24.90;18.40
42002;PMS7003;27693;50.506;30.832;2023-04-16T00:13:34;31.00;27.50;19.70
42002;PMS7003;27693;50.506;30.832;2023-04-16T00:14:37;21.90;20.70;14.90
42002;PMS7003;27693;50.506;30.832;2023-04-16T00:15:39;27.80;26.60;18.10
42002;PMS7003;27693;50.506;30.832;2023-04-16T00:16:42;24.80;22.30;17.40
42002;PMS7003;27693;50.506;30.832;2023-04-16T00:17:44;26.30;23.90;16.90
42002;PMS7003;27693;50.506;30.832;2023-04-16T00:18:48;28.20;25.50;18.60
42002;PMS7003;27693;50.506;30.832;2023-04-16T00:19:50;28.60;25.10;17.80
42002;PMS7003;27693;50.506;30.832;2023-04-16T00:20:52;30.80;25.90;18.80
42002;PMS7003;27693;50.506;30.832;2023-04-16T00:21:55;26.40;23.30;15.90
42002;PMS7003;27693;50.506;30.832;2023-04-16T00:22:57;25.80;24.70;18.80
42002;PMS7003;27693;50.506;30.832;2023-04-16T00:23:59;29.90;25.80;18.30
42002;PMS7003;27693;50.506;30.832;2023-04-16T00:25:02;21.40;12.70;4.60
42002;PMS7003;27693;50.506;30.832;2023-04-16T00:26:05;26.50;23.30;17.90
42002;PMS7003;27693;50.506;30.832;2023-04-16T00:27:09;31.60;26.40;19.50
42002;PMS7003;27693;50.506;30.832;2023-04-16T00:28:11;30.90;28.20;20.00
42002;PMS7003;27693;50.506;30.832;2023-04-16T00:29:13;28.10;24.60;17.50
42002;PMS7003;27693;50.506;30.832;2023-04-16T00:30:16;32.80;28.60;19.70
42002;PMS7003;27693;50.506;30.832;2023-04-16T00:31:25;28.00;25.80;19.40
42002;PMS7003;27693;50.506;30.832;2023-04-16T00:32:30;28.30;25.60;18.00
42002;PMS7003;27693;50.506;30.832;2023-04-16T00:33:33;30.40;26.90;19.70
42002;PMS7003;27693;50.506;30.832;2023-04-16T00:34:35;32.60;26.50;18.60
42002;PMS7003;27693;50.506;30.832;2023-04-16T00:35:38;23.70;21.40;13.80
42002;PMS7003;27693;50.506;30.832;2023-04-16T00:36:42;27.10;25.70;19.00
42002;PMS7003;27693;50.506;30.832;2023-04-16T00:37:44;28.30;26.60;18.20
42002;PMS7003;27693;50.506;30.832;2023-04-16T00:38:46;33.90;27.60;19.80
42002;PMS7003;27693;50.506;30.832;2023-04-16T00:39:50;29.80;25.90;18.30
42002;PMS7003;27693;50.506;30.832;2023-04-16T00:40:52;29.00;27.00;19.60
42002;PMS7003;27693;50.506;30.832;2023-04-16T00:41:55;29.90;23.20;15.90
42002;PMS7003;27693;50.506;30.832;2023-04-16T00:42:57;31.80;27.30;20.20
42002;PMS7003;27693;50.506;30.832;2023-04-16T00:43:59;31.50;25.90;18.90
42002;PMS7003;27693;50.506;30.832;2023-04-16T00:45:02;32.80;27.80;19.80
42002;PMS7003;27693;50.506;30.832;2023-04-16T00:46:06;30.90;28.20;19.50
42002;PMS7003;27693;50.506;30.832;2023-04-16T00:47:09;35.80;28.30;20.70
42002;PMS7003;27693;50.506;30.832;2023-04-16T00:48:12;36.40;28.70;19.80
42002;PMS7003;27693;50.506;30.832;2023-04-16T00:49:14;28.80;25.80;18.70
42002;PMS7003;27693;50.506;30.832;2023-04-16T00:50:17;30.82;24.55;17.91
42002;PMS7003;27693;50.506;30.832;2023-04-16T00:51:20;30.90;27.10;18.40
42002;PMS7003;27693;50.506;30.832;2023-04-16T00:52:24;22.60;21.90;18.10
42002;PMS7003;27693;50.506;30.832;2023-04-16T00:53:27;32.30;27.60;20.20
42002;PMS7003;27693;50.506;30.832;2023-04-16T00:54:30;30.70;28.70;19.40
42002;PMS7003;27693;50.506;30.832;2023-04-16T00:55:32;31.20;28.10;20.20
42002;PMS7003;27693;50.506;30.832;2023-04-16T00:56:36;25.36;22.73;16.91
42002;PMS7003;27693;50.506;30.832;2023-04-16T00:57:39;29.30;27.80;20.30
42002;PMS7003;27693;50.506;30.832;2023-04-16T00:58:42;29.10;24.50;17.50
42002;PMS7003;27693;50.506;30.832;2023-04-16T00:59:44;26.50;22.80;16.40
42002;PMS7003;27693;50.506;30.832;2023-04-16T01:00:47;31.40;27.90;19.40
42002;PMS7003;27693;50.506;30.832;2023-04-16T01:01:50;28.90;26.20;16.60
42002;PMS7003;27693;50.506;30.832;2023-04-16T01:02:52;33.70;28.70;20.10
42002;PMS7003;27693;50.506;30.832;2023-04-16T01:03:56;31.30;26.30;18.70
42002;PMS7003;27693;50.506;30.832;2023-04-16T01:05:01;29.00;27.50;19.20
42002;PMS7003;27693;50.506;30.832;2023-04-16T01:06:06;31.00;28.20;20.10
42002;PMS7003;27693;50.506;30.832;2023-04-16T01:07:08;28.50;26.00;19.30
42002;PMS7003;27693;50.506;30.832;2023-04-16T01:08:16;30.40;26.40;17.50
42002;PMS7003;27693;50.506;30.832;2023-04-16T01:09:19;33.50;27.50;18.10
42002;PMS7003;27693;50.506;30.832;2023-04-16T01:10:21;35.70;29.40;21.00
42002;PMS7003;27693;50.506;30.832;2023-04-16T01:11:23;29.00;26.10;18.40
42002;PMS7003;27693;50.506;30.832;2023-04-16T01:12:26;32.55;27.82;20.55
42002;PMS7003;27693;50.506;30.832;2023-04-16T01:13:29;28.60;23.50;16.60
42002;PMS7003;27693;50.506;30.832;2023-04-16T01:14:31;33.50;29.40;20.50
42002;PMS7003;27693;50.506;30.832;2023-04-16T01:15:36;35.10;27.40;19.00
42002;PMS7003;27693;50.506;30.832;2023-04-16T01:16:39;22.30;20.60;18.00
42002;PMS7003;27693;50.506;30.832;2023-04-16T01:17:43;31.55;26.64;20.36
42002;PMS7003;27693;50.506;30.832;2023-04-16T01:18:47;32.50;30.40;20.60
42002;PMS7003;27693;50.506;30.832;2023-04-16T01:19:50;26.10;25.30;16.80
42002;PMS7003;27693;50.506;30.832;2023-04-16T01:20:52;32.80;27.10;18.10
42002;PMS7003;27693;50.506;30.832;2023-04-16T01:21:54;35.30;29.40;20.20
42002;PMS7003;27693;50.506;30.832;2023-04-16T01:22:56;33.50;29.20;19.10
42002;PMS7003;27693;50.506;30.832;2023-04-16T01:24:02;29.00;24.10;17.80
42002;PMS7003;27693;50.506;30.832;2023-04-16T01:25:05;29.50;26.30;18.80
42002;PMS7003;27693;50.506;30.832;2023-04-16T01:26:08;31.00;27.90;19.20
42002;PMS7003;27693;50.506;30.832;2023-04-16T01:27:10;30.90;27.00;18.70
42002;PMS7003;27693;50.506;30.832;2023-04-16T01:28:12;25.60;23.00;14.00
42002;PMS7003;27693;50.506;30.832;2023-04-16T01:29:15;30.00;26.90;19.10
42002;PMS7003;27693;50.506;30.832;2023-04-16T01:30:18;36.45;29.18;19.73
42002;PMS7003;27693;50.506;30.832;2023-04-16T01:31:22;28.70;26.70;19.90
42002;PMS7003;27693;50.506;30.832;2023-04-16T01:32:26;30.90;28.50;19.60
42002;PMS7003;27693;50.506;30.832;2023-04-16T01:33:29;32.45;27.64;18.64
42002;PMS7003;27693;50.506;30.832;2023-04-16T01:34:31;31.50;26.10;17.60
42002;PMS7003;27693;50.506;30.832;2023-04-16T01:35:33;32.10;26.80;19.40
42002;PMS7003;27693;50.506;30.832;2023-04-16T01:36:36;29.30;26.10;17.90
42002;PMS7003;27693;50.506;30.832;2023-04-16T01:37:38;26.60;22.70;16.00
42002;PMS7003;27693;50.506;30.832;2023-04-16T01:38:40;28.80;25.20;18.80
42002;PMS7003;27693;50.506;30.832;2023-04-16T01:39:43;26.80;23.50;18.50
42002;PMS7003;27693;50.506;30.832;2023-04-16T01:40:45;30.60;28.20;20.30
42002;PMS7003;27693;50.506;30.832;2023-04-16T01:41:47;29.00;26.70;20.30
42002;PMS7003;27693;50.506;30.832;2023-04-16T01:42:49;27.70;24.30;17.80
42002;PMS7003;27693;50.506;30.832;2023-04-16T01:43:52;28.20;24.50;17.50
42002;PMS7003;27693;50.506;30.832;2023-04-16T01:44:54;28.20;25.90;17.90
42002;PMS7003;27693;50.506;30.832;2023-04-16T01:47:16;30.10;25.20;19.10
42002;PMS7003;27693;50.506;30.832;2023-04-16T01:48:19;32.90;25.80;17.30
42002;PMS7003;27693;50.506;30.832;2023-04-16T01:49:21;34.50;28.40;20.20
42002;PMS7003;27693;50.506;30.832;2023-04-16T01:50:24;31.91;23.91;17.09
42002;PMS7003;27693;50.506;30.832;2023-04-16T01:51:27;26.27;21.64;17.18
42002;PMS7003;27693;50.506;30.832;2023-04-16T01:52:29;31.30;26.50;19.00
42002;PMS7003;27693;50.506;30.832;2023-04-16T01:53:31;29.80;27.90;19.40
42002;PMS7003;27693;50.506;30.832;2023-04-16T01:54:37;33.00;28.90;20.10
42002;PMS7003;27693;50.506;30.832;2023-04-16T01:55:39;32.60;28.40;20.60
42002;PMS7003;27693;50.506;30.832;2023-04-16T01:56:43;31.00;27.40;19.90
42002;PMS7003;27693;50.506;30.832;2023-04-16T01:57:45;29.70;25.90;18.50
42002;PMS7003;27693;50.506;30.832;2023-04-16T01:58:48;31.60;25.60;18.60
42002;PMS7003;27693;50.506;30.832;2023-04-16T01:59:52;29.50;25.90;17.50
42002;PMS7003;27693;50.506;30.832;2023-04-16T02:00:55;27.00;23.70;17.60
42002;PMS7003;27693;50.506;30.832;2023-04-16T02:02:00;29.10;25.50;19.70
42002;PMS7003;27693;50.506;30.832;2023-04-16T02:03:04;28.50;26.80;19.90
42002;PMS7003;27693;50.506;30.832;2023-04-16T02:04:07;26.82;22.36;14.27
42002;PMS7003;27693;50.506;30.832;2023-04-16T02:05:10;29.10;26.60;18.10
42002;PMS7003;27693;50.506;30.832;2023-04-16T02:06:13;27.90;26.10;18.50
42002;PMS7003;27693;50.506;30.832;2023-04-16T02:07:16;27.09;25.00;18.18
42002;PMS7003;27693;50.506;30.832;2023-04-16T02:08:18;30.80;23.50;17.40
42002;PMS7003;27693;50.506;30.832;2023-04-16T02:09:21;24.90;19.30;15.00
42002;PMS7003;27693;50.506;30.832;2023-04-16T02:10:25;12.20;10.50;7.00
42002;PMS7003;27693;50.506;30.832;2023-04-16T02:11:28;28.45;25.27;17.55
42002;PMS7003;27693;50.506;30.832;2023-04-16T02:12:30;28.50;23.30;15.80
42002;PMS7003;27693;50.506;30.832;2023-04-16T02:13:33;29.00;24.90;17.60
42002;PMS7003;27693;50.506;30.832;2023-04-16T02:14:36;25.80;21.20;16.90
42002;PMS7003;27693;50.506;30.832;2023-04-16T02:15:38;27.30;25.50;17.70
42002;PMS7003;27693;50.506;30.832;2023-04-16T02:16:41;27.20;23.40;16.70
42002;PMS7003;27693;50.506;30.832;2023-04-16T02:17:45;22.40;22.10;17.50
42002;PMS7003;27693;50.506;30.832;2023-04-16T02:18:49;28.10;24.80;18.60
42002;PMS7003;27693;50.506;30.832;2023-04-16T02:19:53;26.30;23.40;17.50
42002;PMS7003;27693;50.506;30.832;2023-04-16T02:20:57;27.00;25.00;18.80
42002;PMS7003;27693;50.506;30.832;2023-04-16T02:22:02;25.50;22.50;16.70
42002;PMS7003;27693;50.506;30.832;2023-04-16T02:23:05;26.00;22.80;16.60
42002;PMS7003;27693;50.506;30.832;2023-04-16T02:24:10;23.10;21.90;14.70
42002;PMS7003;27693;50.506;30.832;2023-04-16T02:25:12;25.80;21.10;16.10
42002;PMS7003;27693;50.506;30.832;2023-04-16T02:26:15;28.60;23.30;16.30
42002;PMS7003;27693;50.506;30.832;2023-04-16T02:27:18;26.10;22.50;14.70
42002;PMS7003;27693;50.506;30.832;2023-04-16T02:28:22;25.00;22.60;15.60
42002;PMS7003;27693;50.506;30.832;2023-04-16T02:29:25;28.30;22.60;15.70
42002;PMS7003;27693;50.506;30.832;2023-04-16T02:30:29;27.60;22.20;16.50
42002;PMS7003;27693;50.506;30.832;2023-04-16T02:31:32;23.70;20.10;15.90
42002;PMS7003;27693;50.506;30.832;2023-04-16T02:32:34;26.60;22.20;17.50
42002;PMS7003;27693;50.506;30.832;2023-04-16T02:33:37;27.50;20.30;14.60
42002;PMS7003;27693;50.506;30.832;2023-04-16T02:34:40;26.60;21.70;15.90
42002;PMS7003;27693;50.506;30.832;2023-04-16T02:35:45;24.40;20.40;11.70
42002;PMS7003;27693;50.506;30.832;2023-04-16T02:36:49;21.30;20.50;13.90
42002;PMS7003;27693;50.506;30.832;2023-04-16T02:37:51;25.00;20.40;14.60
42002;PMS7003;27693;50.506;30.832;2023-04-16T02:38:54;23.40;20.50;14.40
42002;PMS7003;27693;50.506;30.832;2023-04-16T02:39:56;23.60;20.20;16.30
42002;PMS7003;27693;50.506;30.832;2023-04-16T02:40:59;28.00;23.90;15.70
42002;PMS7003;27693;50.506;30.832;2023-04-16T02:42:02;27.70;22.20;14.70
42002;PMS7003;27693;50.506;30.832;2023-04-16T02:43:05;23.40;21.40;16.70
42002;PMS7003;27693;50.506;30.832;2023-04-16T02:44:07;24.40;21.00;14.30
42002;PMS7003;27693;50.506;30.832;2023-04-16T02:45:09;21.70;20.40;14.00
42002;PMS7003;27693;50.506;30.832;2023-04-16T02:46:12;23.10;20.70;15.10
42002;PMS7003;27693;50.506;30.832;2023-04-16T02:47:16;27.00;22.30;14.80
42002;PMS7003;27693;50.506;30.832;2023-04-16T02:48:18;12.44;11.22;6.33
42002;PMS7003;27693;50.506;30.832;2023-04-16T02:49:21;19.60;17.80;14.30
42002;PMS7003;27693;50.506;30.832;2023-04-16T02:50:23;23.10;18.80;13.70
42002;PMS7003;27693;50.506;30.832;2023-04-16T02:51:25;24.80;21.60;15.90
42002;PMS7003;27693;50.506;30.832;2023-04-16T02:52:28;24.50;22.50;16.00
42002;PMS7003;27693;50.506;30.832;2023-04-16T02:53:30;19.60;18.90;13.80
42002;PMS7003;27693;50.506;30.832;2023-04-16T02:54:32;26.60;22.70;15.70
42002;PMS7003;27693;50.506;30.832;2023-04-16T02:55:35;23.50;19.50;14.10
42002;PMS7003;27693;50.506;30.832;2023-04-16T02:56:37;21.20;19.00;13.90
42002;PMS7003;27693;50.506;30.832;2023-04-16T02:57:39;22.50;20.20;14.60
42002;PMS7003;27693;50.506;30.832;2023-04-16T02:58:43;21.10;17.60;13.80
42002;PMS7003;27693;50.506;30.832;2023-04-16T02:59:46;15.60;14.80;12.90
42002;PMS7003;27693;50.506;30.832;2023-04-16T03:00:49;25.80;21.30;14.50
42002;PMS7003;27693;50.506;30.832;2023-04-16T03:01:51;18.30;17.10;12.20
42002;PMS7003;27693;50.506;30.832;2023-04-16T03:02:55;19.90;15.80;11.40
42002;PMS7003;27693;50.506;30.832;2023-04-16T03:03:57;21.90;19.10;14.90
42002;PMS7003;27693;50.506;30.832;2023-04-16T03:05:00;20.30;17.90;12.50
42002;PMS7003;27693;50.506;30.832;2023-04-16T03:06:04;21.80;18.40;13.00
42002;PMS7003;27693;50.506;30.832;2023-04-16T03:07:06;20.50;18.40;12.70
42002;PMS7003;27693;50.506;30.832;2023-04-16T03:08:09;18.70;17.20;12.40
42002;PMS7003;27693;50.506;30.832;2023-04-16T03:09:13;19.90;16.30;12.60
42002;PMS7003;27693;50.506;30.832;2023-04-16T03:10:16;20.10;16.30;12.20
42002;PMS7003;27693;50.506;30.832;2023-04-16T03:11:18;18.10;14.50;11.10
42002;PMS7003;27693;50.506;30.832;2023-04-16T03:12:21;22.00;17.55;12.55
42002;PMS7003;27693;50.506;30.832;2023-04-16T03:13:24;18.80;15.30;11.10
42002;PMS7003;27693;50.506;30.832;2023-04-16T03:14:26;20.30;17.00;12.50
42002;PMS7003;27693;50.506;30.832;2023-04-16T03:15:28;18.80;16.20;11.90
42002;PMS7003;27693;50.506;30.832;2023-04-16T03:16:32;19.20;14.60;11.80
42002;PMS7003;27693;50.506;30.832;2023-04-16T03:17:34;20.40;16.50;12.20
42002;PMS7003;27693;50.506;30.832;2023-04-16T03:18:36;17.80;16.30;12.20
42002;PMS7003;27693;50.506;30.832;2023-04-16T03:19:39;17.70;16.60;12.20
42002;PMS7003;27693;50.506;30.832;2023-04-16T03:20:41;15.40;13.60;10.80
42002;PMS7003;27693;50.506;30.832;2023-04-16T03:21:45;18.90;17.10;13.20
42002;PMS7003;27693;50.506;30.832;2023-04-16T03:22:48;20.50;18.40;13.20
42002;PMS7003;27693;50.506;30.832;2023-04-16T03:23:53;17.30;14.50;11.10
42002;PMS7003;27693;50.506;30.832;2023-04-16T03:24:56;16.80;16.00;11.40
42002;PMS7003;27693;50.506;30.832;2023-04-16T03:25:59;14.50;13.90;10.40
42002;PMS7003;27693;50.506;30.832;2023-04-16T03:27:02;14.00;13.60;10.60
42002;PMS7003;27693;50.506;30.832;2023-04-16T03:28:04;19.50;17.60;13.00
42002;PMS7003;27693;50.506;30.832;2023-04-16T03:29:07;19.45;15.73;11.64
42002;PMS7003;27693;50.506;30.832;2023-04-16T03:30:11;19.10;15.90;11.00
42002;PMS7003;27693;50.506;30.832;2023-04-16T03:31:14;19.10;14.80;10.70
42002;PMS7003;27693;50.506;30.832;2023-04-16T03:32:17;18.82;14.73;11.64
42002;PMS7003;27693;50.506;30.832;2023-04-16T03:33:20;18.10;16.00;12.50
42002;PMS7003;27693;50.506;30.832;2023-04-16T03:34:23;15.10;13.40;10.30
42002;PMS7003;27693;50.506;30.832;2023-04-16T03:35:25;16.40;15.00;10.70
42002;PMS7003;27693;50.506;30.832;2023-04-16T03:36:29;16.40;14.70;11.00
42002;PMS7003;27693;50.506;30.832;2023-04-16T03:37:32;20.40;16.90;11.70
42002;PMS7003;27693;50.506;30.832;2023-04-16T03:38:36;18.70;15.90;12.20
42002;PMS7003;27693;50.506;30.832;2023-04-16T03:39:38;16.10;15.60;11.30
42002;PMS7003;27693;50.506;30.832;2023-04-16T03:40:41;18.60;16.90;13.40
42002;PMS7003;27693;50.506;30.832;2023-04-16T03:41:43;17.90;15.50;11.30
42002;PMS7003;27693;50.506;30.832;2023-04-16T03:42:46;14.30;11.80;7.50
42002;PMS7003;27693;50.506;30.832;2023-04-16T03:43:48;19.30;15.60;11.60
42002;PMS7003;27693;50.506;30.832;2023-04-16T03:44:50;17.60;15.90;11.20
42002;PMS7003;27693;50.506;30.832;2023-04-16T03:45:55;17.40;15.50;12.80
42002;PMS7003;27693;50.506;30.832;2023-04-16T03:46:58;20.36;16.09;11.91
42002;PMS7003;27693;50.506;30.832;2023-04-16T03:48:01;19.55;16.09;11.27
42002;PMS7003;27693;50.506;30.832;2023-04-16T03:49:04;16.70;15.80;12.80
42002;PMS7003;27693;50.506;30.832;2023-04-16T03:50:08;18.80;17.60;13.30
42002;PMS7003;27693;50.506;30.832;2023-04-16T03:51:12;20.00;17.50;12.90
42002;PMS7003;27693;50.506;30.832;2023-04-16T03:52:15;23.50;18.30;13.10
42002;PMS7003;27693;50.506;30.832;2023-04-16T03:53:18;18.10;17.70;12.50
42002;PMS7003;27693;50.506;30.832;2023-04-16T03:54:21;25.80;19.90;15.30
42002;PMS7003;27693;50.506;30.832;2023-04-16T03:55:27;18.80;18.00;12.50
42002;PMS7003;27693;50.506;30.832;2023-04-16T03:56:31;15.90;13.70;11.20
42002;PMS7003;27693;50.506;30.832;2023-04-16T03:57:34;20.80;19.20;12.80
42002;PMS7003;27693;50.506;30.832;2023-04-16T03:58:38;21.30;16.80;12.90
42002;PMS7003;27693;50.506;30.832;2023-04-16T03:59:42;21.30;18.10;13.60
42002;PMS7003;27693;50.506;30.832;2023-04-16T04:00:44;20.70;18.00;13.20
42002;PMS7003;27693;50.506;30.832;2023-04-16T04:01:47;22.82;20.36;13.55
42002;PMS7003;27693;50.506;30.832;2023-04-16T04:02:50;20.64;18.00;13.91
42002;PMS7003;27693;50.506;30.832;2023-04-16T04:03:53;19.60;17.10;13.80
42002;PMS7003;27693;50.506;30.832;2023-04-16T04:04:56;22.30;19.70;14.40
42002;PMS7003;27693;50.506;30.832;2023-04-16T04:05:58;19.50;19.30;14.80
42002;PMS7003;27693;50.506;30.832;2023-04-16T04:07:02;19.20;16.80;12.40
42002;PMS7003;27693;50.506;30.832;2023-04-16T04:08:05;21.73;17.45;13.45
42002;PMS7003;27693;50.506;30.832;2023-04-16T04:09:09;23.00;21.00;14.70
42002;PMS7003;27693;50.506;30.832;2023-04-16T04:10:13;23.20;20.10;14.20
42002;PMS7003;27693;50.506;30.832;2023-04-16T04:11:16;20.00;17.70;12.90
42002;PMS7003;27693;50.506;30.832;2023-04-16T04:12:19;22.00;18.30;12.20
42002;PMS7003;27693;50.506;30.832;2023-04-16T04:13:23;23.00;20.70;14.90
42002;PMS7003;27693;50.506;30.832;2023-04-16T04:14:26;21.09;18.64;13.45
42002;PMS7003;27693;50.506;30.832;2023-04-16T04:15:28;25.60;18.80;14.70
42002;PMS7003;27693;50.506;30.832;2023-04-16T04:16:31;18.10;14.30;10.40
42002;PMS7003;27693;50.506;30.832;2023-04-16T04:17:33;24.30;19.10;13.80
42002;PMS7003;27693;50.506;30.832;2023-04-16T04:18:37;26.36;21.45;14.55
42002;PMS7003;27693;50.506;30.832;2023-04-16T04:19:43;22.50;20.00;13.90
42002;PMS7003;27693;50.506;30.832;2023-04-16T04:20:47;25.00;21.60;15.50
42002;PMS7003;27693;50.506;30.832;2023-04-16T04:21:51;21.80;17.80;14.90
42002;PMS7003;27693;50.506;30.832;2023-04-16T04:22:54;23.70;18.60;13.60
42002;PMS7003;27693;50.506;30.832;2023-04-16T04:23:58;20.40;17.60;12.70
42002;PMS7003;27693;50.506;30.832;2023-04-16T04:25:03;22.70;18.30;13.60
42002;PMS7003;27693;50.506;30.832;2023-04-16T04:26:07;23.50;20.60;15.20
42002;PMS7003;27693;50.506;30.832;2023-04-16T04:27:10;25.27;18.27;13.27
42002;PMS7003;27693;50.506;30.832;2023-04-16T04:28:13;19.40;16.60;12.10
42002;PMS7003;27693;50.506;30.832;2023-04-16T04:29:15;25.30;21.30;15.00
42002;PMS7003;27693;50.506;30.832;2023-04-16T04:30:17;23.50;19.40;15.20
42002;PMS7003;27693;50.506;30.832;2023-04-16T04:31:20;18.40;16.90;12.70
42002;PMS7003;27693;50.506;30.832;2023-04-16T04:32:22;28.00;22.50;15.20
42002;PMS7003;27693;50.506;30.832;2023-04-16T04:33:24;23.80;20.30;15.00
42002;PMS7003;27693;50.506;30.832;2023-04-16T04:34:26;25.30;22.70;15.20
42002;PMS7003;27693;50.506;30.832;2023-04-16T04:35:30;25.30;19.20;14.50
42002;PMS7003;27693;50.506;30.832;2023-04-16T04:36:33;23.90;22.30;15.10
42002;PMS7003;27693;50.506;30.832;2023-04-16T04:37:35;28.20;24.40;15.90
42002;PMS7003;27693;50.506;30.832;2023-04-16T04:38:39;24.90;21.30;15.30
42002;PMS7003;27693;50.506;30.832;2023-04-16T04:39:42;23.40;21.80;15.10
42002;PMS7003;27693;50.506;30.832;2023-04-16T04:40:50;26.60;21.40;15.50
42002;PMS7003;27693;50.506;30.832;2023-04-16T04:41:54;25.90;21.40;16.00
42002;PMS7003;27693;50.506;30.832;2023-04-16T04:42:57;29.90;21.50;17.10
42002;PMS7003;27693;50.506;30.832;2023-04-16T04:44:00;26.80;19.80;15.80
42002;PMS7003;27693;50.506;30.832;2023-04-16T04:45:03;25.20;22.80;16.10
42002;PMS7003;27693;50.506;30.832;2023-04-16T04:46:09;25.00;21.10;14.30
42002;PMS7003;27693;50.506;30.832;2023-04-16T04:47:12;23.20;19.30;13.80
42002;PMS7003;27693;50.506;30.832;2023-04-16T04:48:16;28.90;24.70;15.50
42002;PMS7003;27693;50.506;30.832;2023-04-16T04:49:20;22.70;18.90;14.30
42002;PMS7003;27693;50.506;30.832;2023-04-16T04:50:22;25.60;20.30;16.80
42002;PMS7003;27693;50.506;30.832;2023-04-16T04:51:24;28.00;20.20;12.60
42002;PMS7003;27693;50.506;30.832;2023-04-16T04:52:27;25.50;23.50;15.80
42002;PMS7003;27693;50.506;30.832;2023-04-16T04:53:29;23.90;20.80;15.20
42002;PMS7003;27693;50.506;30.832;2023-04-16T04:54:32;23.60;23.30;16.50
42002;PMS7003;27693;50.506;30.832;2023-04-16T04:55:35;24.40;21.90;16.10
42002;PMS7003;27693;50.506;30.832;2023-04-16T04:56:40;25.60;22.60;16.00
42002;PMS7003;27693;50.506;30.832;2023-04-16T04:57:45;27.20;22.40;16.40
42002;PMS7003;27693;50.506;30.832;2023-04-16T04:58:48;26.30;21.40;17.00
42002;PMS7003;27693;50.506;30.832;2023-04-16T04:59:53;25.50;20.40;13.00
42002;PMS7003;27693;50.506;30.832;2023-04-16T05:00:56;26.50;24.20;16.70
42002;PMS7003;27693;50.506;30.832;2023-04-16T05:01:58;26.70;21.70;16.80
42002;PMS7003;27693;50.506;30.832;2023-04-16T05:03:01;24.50;21.10;14.90
42002;PMS7003;27693;50.506;30.832;2023-04-16T05:04:05;27.40;23.80;16.10
42002;PMS7003;27693;50.506;30.832;2023-04-16T05:05:07;24.60;21.40;14.80
42002;PMS7003;27693;50.506;30.832;2023-04-16T05:06:10;22.70;19.80;13.70
42002;PMS7003;27693;50.506;30.832;2023-04-16T05:07:13;26.90;23.10;14.80
42002;PMS7003;27693;50.506;30.832;2023-04-16T05:08:16;25.40;22.10;16.10
42002;PMS7003;27693;50.506;30.832;2023-04-16T05:09:19;38.10;31.10;22.30
42002;PMS7003;27693;50.506;30.832;2023-04-16T05:10:21;24.50;22.10;16.00
42002;PMS7003;27693;50.506;30.832;2023-04-16T05:11:25;22.27;19.91;14.55
42002;PMS7003;27693;50.506;30.832;2023-04-16T05:12:27;25.70;22.50;16.20
42002;PMS7003;27693;50.506;30.832;2023-04-16T05:13:30;22.00;19.60;15.20
42002;PMS7003;27693;50.506;30.832;2023-04-16T05:14:32;26.50;20.40;15.00
42002;PMS7003;27693;50.506;30.832;2023-04-16T05:15:35;26.50;22.00;14.90
42002;PMS7003;27693;50.506;30.832;2023-04-16T05:16:38;22.00;19.00;12.80
42002;PMS7003;27693;50.506;30.832;2023-04-16T05:17:40;28.30;22.00;17.30
42002;PMS7003;27693;50.506;30.832;2023-04-16T05:18:43;21.70;18.30;13.30
42002;PMS7003;27693;50.506;30.832;2023-04-16T05:19:45;22.20;19.70;14.40
42002;PMS7003;27693;50.506;30.832;2023-04-16T05:20:49;20.30;18.40;14.00
42002;PMS7003;27693;50.506;30.832;2023-04-16T05:21:52;21.50;20.30;15.40
42002;PMS7003;27693;50.506;30.832;2023-04-16T05:22:55;27.40;21.40;15.40
42002;PMS7003;27693;50.506;30.832;2023-04-16T05:23:57;23.20;17.40;13.70
42002;PMS7003;27693;50.506;30.832;2023-04-16T05:25:00;26.80;23.40;15.90
42002;PMS7003;27693;50.506;30.832;2023-04-16T05:26:03;25.90;22.30;15.30
42002;PMS7003;27693;50.506;30.832;2023-04-16T05:27:05;28.40;22.80;16.00
42002;PMS7003;27693;50.506;30.832;2023-04-16T05:28:08;20.70;17.60;11.90
42002;PMS7003;27693;50.506;30.832;2023-04-16T05:29:10;23.40;20.70;15.30
42002;PMS7003;27693;50.506;30.832;2023-04-16T05:30:14;24.20;20.30;14.80
42002;PMS7003;27693;50.506;30.832;2023-04-16T05:31:16;24.20;20.80;15.40
42002;PMS7003;27693;50.506;30.832;2023-04-16T05:32:20;26.90;21.80;16.10
42002;PMS7003;27693;50.506;30.832;2023-04-16T05:33:23;20.00;17.82;13.36
42002;PMS7003;27693;50.506;30.832;2023-04-16T05:34:25;23.82;20.55;14.45
42002;PMS7003;27693;50.506;30.832;2023-04-16T05:35:28;23.50;18.30;12.90
42002;PMS7003;27693;50.506;30.832;2023-04-16T05:36:30;27.40;19.60;13.60
42002;PMS7003;27693;50.506;30.832;2023-04-16T05:37:33;23.50;19.80;13.90
42002;PMS7003;27693;50.506;30.832;2023-04-16T05:38:35;22.10;20.30;14.10
42002;PMS7003;27693;50.506;30.832;2023-04-16T05:39:37;21.60;19.00;14.40
42002;PMS7003;27693;50.506;30.832;2023-04-16T05:40:40;21.80;18.20;13.10
42002;PMS7003;27693;50.506;30.832;2023-04-16T05:41:43;16.40;14.80;10.30
42002;PMS7003;27693;50.506;30.832;2023-04-16T05:42:45;25.70;20.90;15.30
42002;PMS7003;27693;50.506;30.832;2023-04-16T05:43:47;17.60;17.30;12.20
42002;PMS7003;27693;50.506;30.832;2023-04-16T05:44:50;20.60;19.60;14.50
42002;PMS7003;27693;50.506;30.832;2023-04-16T05:45:53;20.10;17.80;13.60
42002;PMS7003;27693;50.506;30.832;2023-04-16T05:46:56;20.90;18.20;13.10
42002;PMS7003;27693;50.506;30.832;2023-04-16T05:47:58;21.30;18.10;13.40
42002;PMS7003;27693;50.506;30.832;2023-04-16T05:49:00;22.30;18.60;14.00
42002;PMS7003;27693;50.506;30.832;2023-04-16T05:50:02;22.00;19.00;13.80